• Join FlightAware (Why Join?)
  • Login
  • US Flag 
03:01PM EDT


 

Airport Tracker/Info


-or-


 

Live Flight TrackerFlight Track Log ✈ CTL18 ✈ 03-Jun-2013 ✈ KMBS - KYIP

Flight Track Log - Related Links

Times and Time Zones

All times are in EDT time to prevent confusion due to time zone crossing. See the CTL18 flight status page for this flight to view local times or setup timezone preferences in your user account.

Time Position Orientation Groundspeed Altitude Reporting Facility
EDT Latitude Longitude Course Direction KTS MPH feet Rate Location/Type
07:52PM 43.3904 -84.0180 160° South  Level Estimated
07:53PM 43.3637 -83.9994 153° Southeast  Level FlightAware Approximate
07:54PM 43.3371 -83.9809 153° Southeast  Level FlightAware Approximate
07:55PM 43.3085 -83.9689 160° South  Level Estimated
07:56PM 43.2809 -83.9532 157° South  Level FlightAware Approximate
07:57PM 43.2533 -83.9375 157° South  Level FlightAware Approximate
07:58PM 43.2246 -83.9258 163° South  Level Estimated
07:59PM 43.1964 -83.9124 161° South  Level FlightAware Approximate
08:00PM 43.1682 -83.8990 161° South  Level FlightAware Approximate
08:00PM 42.9597 -83.7864 165° South 185 213 5,000  Level Cleveland Center
08:01PM 43.1399 -83.8856 161° South  Level FlightAware Approximate
08:01PM 42.9100 -83.7694 166° South 184 212 5,000  Level Cleveland Center
08:02PM 43.1113 -83.8741 160° South  Level Estimated
08:02PM 42.8628 -83.7472 161° South 183 211 5,100  Level Cleveland Center
08:03PM 43.0832 -83.8599 160° South  Level FlightAware Approximate
08:03PM 42.8092 -83.7306 167° South 183 211 5,000  Level Cleveland Center
08:04PM 43.0552 -83.8456 160° South  Level FlightAware Approximate
08:04PM 42.7575 -83.7108 164° South 179 206 5,000  Level Cleveland Center
08:05PM 42.7078 -83.7000 171° South 180 207 5,000 -180 Level Cleveland Center
08:06PM 42.6603 -83.6861 168° South 182 209 4,700 -300 Descending Cleveland Center
08:07PM 42.6086 -83.6694 167° South 185 213 4,500 -240 Descending Cleveland Center
08:08PM 42.5589 -83.6558 169° South 184 212 4,300 -180 Descending Cleveland Center
08:09PM 42.5111 -83.6422 168° South 182 209 4,200 -180 Descending Cleveland Center
08:10PM 42.4514 -83.6225 166° South 184 212 4,000 -480 Descending Cleveland Center
08:11PM 42.3997 -83.6058 167° South 196 226 3,300 -660 Descending Cleveland Center
08:12PM 42.3519 -83.5925 168° South 192 221 2,800 -480 Descending Cleveland Center
08:13PM 42.3022 -83.5789 169° South 178 205 2,400 -660 Descending Cleveland Center
08:14PM 42.2483 -83.5678 171° South 169 194 1,500 -840 Descending Cleveland Center
08:16PM 42.2393 -83.5310 160° South  Level Estimated
08:23PM 42.2393 -83.5310 160° South  Level Estimated
08:24PM 42.2393 -83.5310 160° South  Level Estimated